sensor_id;sensor_type;location;lat;lon;timestamp;P1;durP1;ratioP1;P2;durP2;ratioP2
11090;SDS011;5599;52.210;21.046;2023-07-08T00:01:17;8.23;;;5.13;;
11090;SDS011;5599;52.210;21.046;2023-07-08T00:03:47;9.38;;;5.63;;
11090;SDS011;5599;52.210;21.046;2023-07-08T00:06:20;13.90;;;6.45;;
11090;SDS011;5599;52.210;21.046;2023-07-08T00:08:50;13.15;;;6.40;;
11090;SDS011;5599;52.210;21.046;2023-07-08T00:11:20;19.35;;;7.72;;
11090;SDS011;5599;52.210;21.046;2023-07-08T00:13:49;11.77;;;6.93;;
11090;SDS011;5599;52.210;21.046;2023-07-08T00:16:18;10.35;;;6.63;;
11090;SDS011;5599;52.210;21.046;2023-07-08T00:18:47;11.95;;;7.50;;
11090;SDS011;5599;52.210;21.046;2023-07-08T00:21:17;9.95;;;6.93;;
11090;SDS011;5599;52.210;21.046;2023-07-08T00:23:48;15.32;;;8.30;;
11090;SDS011;5599;52.210;21.046;2023-07-08T00:26:19;12.63;;;7.60;;
11090;SDS011;5599;52.210;21.046;2023-07-08T00:28:51;14.10;;;8.63;;
11090;SDS011;5599;52.210;21.046;2023-07-08T00:31:20;14.10;;;10.00;;
11090;SDS011;5599;52.210;21.046;2023-07-08T00:33:52;15.52;;;10.90;;
11090;SDS011;5599;52.210;21.046;2023-07-08T00:36:26;13.65;;;9.98;;
11090;SDS011;5599;52.210;21.046;2023-07-08T00:38:55;14.63;;;10.40;;
11090;SDS011;5599;52.210;21.046;2023-07-08T00:41:25;12.38;;;9.18;;
11090;SDS011;5599;52.210;21.046;2023-07-08T00:43:58;12.80;;;8.80;;
11090;SDS011;5599;52.210;21.046;2023-07-08T00:46:31;11.80;;;8.82;;
11090;SDS011;5599;52.210;21.046;2023-07-08T00:49:11;13.52;;;9.18;;
11090;SDS011;5599;52.210;21.046;2023-07-08T00:51:51;13.10;;;9.48;;
11090;SDS011;5599;52.210;21.046;2023-07-08T00:54:21;13.30;;;7.93;;
11090;SDS011;5599;52.210;21.046;2023-07-08T00:56:50;13.48;;;6.78;;
11090;SDS011;5599;52.210;21.046;2023-07-08T00:59:25;8.13;;;5.97;;
11090;SDS011;5599;52.210;21.046;2023-07-08T01:01:58;8.90;;;6.93;;
11090;SDS011;5599;52.210;21.046;2023-07-08T01:04:31;9.40;;;7.73;;
11090;SDS011;5599;52.210;21.046;2023-07-08T01:07:04;16.60;;;8.98;;
11090;SDS011;5599;52.210;21.046;2023-07-08T01:09:36;19.45;;;7.93;;
11090;SDS011;5599;52.210;21.046;2023-07-08T01:12:11;14.00;;;8.65;;
11090;SDS011;5599;52.210;21.046;2023-07-08T01:14:44;9.07;;;8.18;;
11090;SDS011;5599;52.210;21.046;2023-07-08T01:17:15;8.88;;;7.57;;
11090;SDS011;5599;52.210;21.046;2023-07-08T01:19:44;14.73;;;7.68;;
11090;SDS011;5599;52.210;21.046;2023-07-08T01:22:15;11.20;;;7.53;;
11090;SDS011;5599;52.210;21.046;2023-07-08T01:24:45;10.05;;;8.38;;
11090;SDS011;5599;52.210;21.046;2023-07-08T01:27:16;11.23;;;7.72;;
11090;SDS011;5599;52.210;21.046;2023-07-08T01:29:47;10.33;;;8.30;;
11090;SDS011;5599;52.210;21.046;2023-07-08T01:32:17;14.27;;;7.88;;
11090;SDS011;5599;52.210;21.046;2023-07-08T01:34:47;12.77;;;7.20;;
11090;SDS011;5599;52.210;21.046;2023-07-08T01:37:31;11.98;;;7.93;;
11090;SDS011;5599;52.210;21.046;2023-07-08T01:40:15;11.50;;;7.32;;
11090;SDS011;5599;52.210;21.046;2023-07-08T01:42:51;11.98;;;8.38;;
11090;SDS011;5599;52.210;21.046;2023-07-08T01:45:21;15.27;;;8.60;;
11090;SDS011;5599;52.210;21.046;2023-07-08T01:47:53;12.47;;;8.50;;
11090;SDS011;5599;52.210;21.046;2023-07-08T01:50:26;13.00;;;7.63;;
11090;SDS011;5599;52.210;21.046;2023-07-08T01:52:59;8.63;;;7.53;;
11090;SDS011;5599;52.210;21.046;2023-07-08T01:55:31;10.13;;;7.72;;
11090;SDS011;5599;52.210;21.046;2023-07-08T01:58:00;15.05;;;8.45;;
11090;SDS011;5599;52.210;21.046;2023-07-08T02:00:29;9.57;;;7.67;;
11090;SDS011;5599;52.210;21.046;2023-07-08T02:02:58;8.90;;;8.00;;
11090;SDS011;5599;52.210;21.046;2023-07-08T02:05:27;14.83;;;7.40;;
11090;SDS011;5599;52.210;21.046;2023-07-08T02:07:56;10.55;;;8.15;;
11090;SDS011;5599;52.210;21.046;2023-07-08T02:10:28;11.10;;;7.63;;
11090;SDS011;5599;52.210;21.046;2023-07-08T02:12:59;11.47;;;7.67;;
11090;SDS011;5599;52.210;21.046;2023-07-08T02:15:29;11.60;;;7.40;;
11090;SDS011;5599;52.210;21.046;2023-07-08T02:17:59;8.53;;;7.40;;
11090;SDS011;5599;52.210;21.046;2023-07-08T02:20:28;12.97;;;7.93;;
11090;SDS011;5599;52.210;21.046;2023-07-08T02:22:59;9.13;;;7.53;;
11090;SDS011;5599;52.210;21.046;2023-07-08T02:25:28;12.17;;;7.40;;
11090;SDS011;5599;52.210;21.046;2023-07-08T02:27:57;10.48;;;6.78;;
11090;SDS011;5599;52.210;21.046;2023-07-08T02:30:27;11.10;;;6.87;;
11090;SDS011;5599;52.210;21.046;2023-07-08T02:32:56;13.10;;;7.43;;
11090;SDS011;5599;52.210;21.046;2023-07-08T02:35:26;9.53;;;7.10;;
11090;SDS011;5599;52.210;21.046;2023-07-08T02:37:58;8.53;;;7.63;;
11090;SDS011;5599;52.210;21.046;2023-07-08T02:40:27;8.43;;;7.07;;
11090;SDS011;5599;52.210;21.046;2023-07-08T02:42:57;7.57;;;6.23;;
11090;SDS011;5599;52.210;21.046;2023-07-08T02:45:26;11.90;;;6.73;;
11090;SDS011;5599;52.210;21.046;2023-07-08T02:47:55;10.07;;;7.10;;
11090;SDS011;5599;52.210;21.046;2023-07-08T02:50:24;7.27;;;6.57;;
11090;SDS011;5599;52.210;21.046;2023-07-08T02:52:53;7.27;;;6.27;;
11090;SDS011;5599;52.210;21.046;2023-07-08T02:55:24;9.60;;;6.17;;
11090;SDS011;5599;52.210;21.046;2023-07-08T02:57:53;8.10;;;6.33;;
11090;SDS011;5599;52.210;21.046;2023-07-08T03:00:22;11.43;;;6.67;;
11090;SDS011;5599;52.210;21.046;2023-07-08T03:02:51;8.30;;;6.50;;
11090;SDS011;5599;52.210;21.046;2023-07-08T03:05:21;8.43;;;6.10;;
11090;SDS011;5599;52.210;21.046;2023-07-08T03:07:50;7.23;;;6.20;;
11090;SDS011;5599;52.210;21.046;2023-07-08T03:10:19;7.97;;;7.17;;
11090;SDS011;5599;52.210;21.046;2023-07-08T03:12:50;8.17;;;5.97;;
11090;SDS011;5599;52.210;21.046;2023-07-08T03:15:19;7.43;;;6.50;;
11090;SDS011;5599;52.210;21.046;2023-07-08T03:17:48;6.00;;;5.47;;
11090;SDS011;5599;52.210;21.046;2023-07-08T03:20:17;7.00;;;6.30;;
11090;SDS011;5599;52.210;21.046;2023-07-08T03:22:47;11.63;;;6.73;;
11090;SDS011;5599;52.210;21.046;2023-07-08T03:25:16;9.18;;;6.90;;
11090;SDS011;5599;52.210;21.046;2023-07-08T03:27:52;10.18;;;6.50;;
11090;SDS011;5599;52.210;21.046;2023-07-08T03:30:23;7.87;;;6.67;;
11090;SDS011;5599;52.210;21.046;2023-07-08T03:32:52;6.90;;;6.18;;
11090;SDS011;5599;52.210;21.046;2023-07-08T03:35:22;6.60;;;5.90;;
11090;SDS011;5599;52.210;21.046;2023-07-08T03:37:52;7.30;;;5.53;;
11090;SDS011;5599;52.210;21.046;2023-07-08T03:40:21;10.50;;;6.75;;
11090;SDS011;5599;52.210;21.046;2023-07-08T03:42:52;9.23;;;6.80;;
11090;SDS011;5599;52.210;21.046;2023-07-08T03:45:22;7.88;;;6.10;;
11090;SDS011;5599;52.210;21.046;2023-07-08T03:47:51;8.02;;;6.30;;
11090;SDS011;5599;52.210;21.046;2023-07-08T03:50:22;6.43;;;5.82;;
11090;SDS011;5599;52.210;21.046;2023-07-08T03:52:54;7.60;;;5.80;;
11090;SDS011;5599;52.210;21.046;2023-07-08T03:55:27;5.93;;;5.22;;
11090;SDS011;5599;52.210;21.046;2023-07-08T03:57:59;6.97;;;5.93;;
11090;SDS011;5599;52.210;21.046;2023-07-08T04:00:31;7.03;;;6.32;;
11090;SDS011;5599;52.210;21.046;2023-07-08T04:03:02;9.63;;;5.72;;
11090;SDS011;5599;52.210;21.046;2023-07-08T04:05:32;8.18;;;6.15;;
11090;SDS011;5599;52.210;21.046;2023-07-08T04:08:01;8.23;;;5.93;;
11090;SDS011;5599;52.210;21.046;2023-07-08T04:10:30;6.65;;;5.80;;
11090;SDS011;5599;52.210;21.046;2023-07-08T04:13:01;9.55;;;6.35;;
11090;SDS011;5599;52.210;21.046;2023-07-08T04:15:30;8.10;;;6.85;;
11090;SDS011;5599;52.210;21.046;2023-07-08T04:17:59;11.40;;;6.88;;
11090;SDS011;5599;52.210;21.046;2023-07-08T04:20:29;8.48;;;6.20;;
11090;SDS011;5599;52.210;21.046;2023-07-08T04:22:58;7.90;;;7.13;;
11090;SDS011;5599;52.210;21.046;2023-07-08T04:25:27;10.80;;;7.07;;
11090;SDS011;5599;52.210;21.046;2023-07-08T04:27:56;7.45;;;6.65;;
11090;SDS011;5599;52.210;21.046;2023-07-08T04:30:27;7.25;;;6.63;;
11090;SDS011;5599;52.210;21.046;2023-07-08T04:32:56;9.90;;;6.43;;
11090;SDS011;5599;52.210;21.046;2023-07-08T04:35:25;8.48;;;5.95;;
11090;SDS011;5599;52.210;21.046;2023-07-08T04:37:55;8.35;;;7.03;;
11090;SDS011;5599;52.210;21.046;2023-07-08T04:40:25;10.73;;;7.22;;
11090;SDS011;5599;52.210;21.046;2023-07-08T04:42:54;7.72;;;7.03;;
11090;SDS011;5599;52.210;21.046;2023-07-08T04:45:28;7.97;;;6.82;;
11090;SDS011;5599;52.210;21.046;2023-07-08T04:47:57;12.68;;;7.40;;
11090;SDS011;5599;52.210;21.046;2023-07-08T04:50:26;8.18;;;7.13;;
11090;SDS011;5599;52.210;21.046;2023-07-08T04:52:56;7.45;;;6.40;;
11090;SDS011;5599;52.210;21.046;2023-07-08T04:55:25;8.93;;;6.65;;
11090;SDS011;5599;52.210;21.046;2023-07-08T04:57:54;9.60;;;6.85;;
11090;SDS011;5599;52.210;21.046;2023-07-08T05:00:23;7.18;;;6.53;;
11090;SDS011;5599;52.210;21.046;2023-07-08T05:02:54;7.15;;;6.45;;
11090;SDS011;5599;52.210;21.046;2023-07-08T05:05:23;7.43;;;6.82;;
11090;SDS011;5599;52.210;21.046;2023-07-08T05:07:53;10.90;;;7.22;;
11090;SDS011;5599;52.210;21.046;2023-07-08T05:10:22;8.25;;;7.45;;
11090;SDS011;5599;52.210;21.046;2023-07-08T05:12:51;12.93;;;7.38;;
11090;SDS011;5599;52.210;21.046;2023-07-08T05:15:21;7.38;;;6.60;;
11090;SDS011;5599;52.210;21.046;2023-07-08T05:17:50;8.73;;;5.90;;
11090;SDS011;5599;52.210;21.046;2023-07-08T05:20:21;9.30;;;6.72;;
11090;SDS011;5599;52.210;21.046;2023-07-08T05:22:50;9.50;;;6.15;;
11090;SDS011;5599;52.210;21.046;2023-07-08T05:25:20;7.97;;;6.30;;
11090;SDS011;5599;52.210;21.046;2023-07-08T05:27:49;10.50;;;6.28;;
11090;SDS011;5599;52.210;21.046;2023-07-08T05:30:18;6.15;;;5.50;;
11090;SDS011;5599;52.210;21.046;2023-07-08T05:32:47;6.30;;;5.80;;
11090;SDS011;5599;52.210;21.046;2023-07-08T05:35:17;6.20;;;5.45;;
11090;SDS011;5599;52.210;21.046;2023-07-08T05:37:48;5.57;;;5.05;;
11090;SDS011;5599;52.210;21.046;2023-07-08T05:40:17;10.10;;;5.32;;
11090;SDS011;5599;52.210;21.046;2023-07-08T05:42:46;5.88;;;5.38;;
11090;SDS011;5599;52.210;21.046;2023-07-08T05:45:16;6.45;;;5.85;;
11090;SDS011;5599;52.210;21.046;2023-07-08T05:47:45;7.57;;;6.15;;
11090;SDS011;5599;52.210;21.046;2023-07-08T05:50:14;8.65;;;6.55;;
11090;SDS011;5599;52.210;21.046;2023-07-08T05:52:43;7.18;;;5.68;;
11090;SDS011;5599;52.210;21.046;2023-07-08T05:55:14;6.60;;;5.50;;
11090;SDS011;5599;52.210;21.046;2023-07-08T05:57:43;6.55;;;5.95;;
11090;SDS011;5599;52.210;21.046;2023-07-08T06:00:13;6.25;;;5.00;;
11090;SDS011;5599;52.210;21.046;2023-07-08T06:03:02;6.65;;;4.93;;
11090;SDS011;5599;52.210;21.046;2023-07-08T06:05:32;6.90;;;4.90;;
11090;SDS011;5599;52.210;21.046;2023-07-08T06:08:01;6.35;;;4.65;;
11090;SDS011;5599;52.210;21.046;2023-07-08T06:10:32;6.22;;;5.25;;
11090;SDS011;5599;52.210;21.046;2023-07-08T06:13:01;5.80;;;4.15;;
11090;SDS011;5599;52.210;21.046;2023-07-08T06:15:30;5.50;;;4.38;;
11090;SDS011;5599;52.210;21.046;2023-07-08T06:17:59;6.35;;;4.15;;
11090;SDS011;5599;52.210;21.046;2023-07-08T06:20:29;7.85;;;4.13;;
11090;SDS011;5599;52.210;21.046;2023-07-08T06:22:59;5.00;;;3.65;;
11090;SDS011;5599;52.210;21.046;2023-07-08T06:25:28;4.93;;;3.60;;
11090;SDS011;5599;52.210;21.046;2023-07-08T06:27:58;4.15;;;3.67;;
11090;SDS011;5599;52.210;21.046;2023-07-08T06:30:28;4.90;;;3.53;;
11090;SDS011;5599;52.210;21.046;2023-07-08T06:32:57;5.63;;;3.20;;
11090;SDS011;5599;52.210;21.046;2023-07-08T06:35:27;6.13;;;3.35;;
11090;SDS011;5599;52.210;21.046;2023-07-08T06:37:58;4.88;;;3.22;;
11090;SDS011;5599;52.210;21.046;2023-07-08T06:40:27;3.70;;;2.80;;
11090;SDS011;5599;52.210;21.046;2023-07-08T06:42:58;3.65;;;3.00;;
11090;SDS011;5599;52.210;21.046;2023-07-08T06:45:47;5.80;;;2.95;;
11090;SDS011;5599;52.210;21.046;2023-07-08T06:48:17;6.43;;;3.15;;
11090;SDS011;5599;52.210;21.046;2023-07-08T06:50:46;6.20;;;2.65;;
11090;SDS011;5599;52.210;21.046;2023-07-08T06:53:16;5.97;;;2.78;;
11090;SDS011;5599;52.210;21.046;2023-07-08T06:55:45;5.53;;;2.72;;
11090;SDS011;5599;52.210;21.046;2023-07-08T06:58:16;3.15;;;2.88;;
11090;SDS011;5599;52.210;21.046;2023-07-08T07:00:45;4.03;;;2.78;;
11090;SDS011;5599;52.210;21.046;2023-07-08T07:03:14;4.78;;;3.22;;
11090;SDS011;5599;52.210;21.046;2023-07-08T07:05:44;3.15;;;2.88;;
11090;SDS011;5599;52.210;21.046;2023-07-08T07:08:13;3.63;;;3.20;;
11090;SDS011;5599;52.210;21.046;2023-07-08T07:10:42;3.33;;;2.88;;
11090;SDS011;5599;52.210;21.046;2023-07-08T07:13:12;4.45;;;3.03;;
11090;SDS011;5599;52.210;21.046;2023-07-08T07:15:43;4.53;;;3.53;;
11090;SDS011;5599;52.210;21.046;2023-07-08T07:18:12;6.35;;;3.33;;
11090;SDS011;5599;52.210;21.046;2023-07-08T07:20:46;5.03;;;2.95;;
11090;SDS011;5599;52.210;21.046;2023-07-08T07:23:18;3.17;;;2.88;;
11090;SDS011;5599;52.210;21.046;2023-07-08T07:25:47;4.57;;;3.00;;
11090;SDS011;5599;52.210;21.046;2023-07-08T07:28:17;3.47;;;3.17;;
11090;SDS011;5599;52.210;21.046;2023-07-08T07:30:52;5.32;;;2.90;;
11090;SDS011;5599;52.210;21.046;2023-07-08T07:33:26;4.25;;;2.58;;
11090;SDS011;5599;52.210;21.046;2023-07-08T07:35:55;2.45;;;2.25;;
11090;SDS011;5599;52.210;21.046;2023-07-08T07:38:25;3.63;;;2.65;;
11090;SDS011;5599;52.210;21.046;2023-07-08T07:40:56;2.50;;;2.30;;
11090;SDS011;5599;52.210;21.046;2023-07-08T07:43:27;4.13;;;2.00;;
11090;SDS011;5599;52.210;21.046;2023-07-08T07:45:57;3.28;;;2.50;;
11090;SDS011;5599;52.210;21.046;2023-07-08T07:48:27;2.88;;;2.60;;
11090;SDS011;5599;52.210;21.046;2023-07-08T07:50:56;2.95;;;2.45;;
11090;SDS011;5599;52.210;21.046;2023-07-08T07:53:27;2.90;;;2.60;;
11090;SDS011;5599;52.210;21.046;2023-07-08T07:55:56;5.00;;;2.53;;
11090;SDS011;5599;52.210;21.046;2023-07-08T07:58:27;3.50;;;2.38;;
11090;SDS011;5599;52.210;21.046;2023-07-08T08:00:57;2.50;;;2.30;;
11090;SDS011;5599;52.210;21.046;2023-07-08T08:03:27;3.85;;;2.58;;
11090;SDS011;5599;52.210;21.046;2023-07-08T08:05:56;2.83;;;2.55;;
11090;SDS011;5599;52.210;21.046;2023-07-08T08:08:26;3.20;;;2.42;;
11090;SDS011;5599;52.210;21.046;2023-07-08T08:10:55;2.83;;;2.30;;
11090;SDS011;5599;52.210;21.046;2023-07-08T08:13:25;5.03;;;2.30;;
11090;SDS011;5599;52.210;21.046;2023-07-08T08:15:59;4.00;;;2.58;;
11090;SDS011;5599;52.210;21.046;2023-07-08T08:18:29;4.25;;;2.45;;
11090;SDS011;5599;52.210;21.046;2023-07-08T08:20:58;3.90;;;2.38;;
11090;SDS011;5599;52.210;21.046;2023-07-08T08:23:28;5.63;;;2.55;;
11090;SDS011;5599;52.210;21.046;2023-07-08T08:25:57;4.10;;;2.22;;
11090;SDS011;5599;52.210;21.046;2023-07-08T08:28:26;3.13;;;2.33;;
11090;SDS011;5599;52.210;21.046;2023-07-08T08:30:56;3.15;;;2.53;;
11090;SDS011;5599;52.210;21.046;2023-07-08T08:33:27;4.82;;;2.38;;
11090;SDS011;5599;52.210;21.046;2023-07-08T08:35:56;3.17;;;2.30;;
11090;SDS011;5599;52.210;21.046;2023-07-08T08:38:26;3.85;;;2.42;;
11090;SDS011;5599;52.210;21.046;2023-07-08T08:40:55;3.63;;;2.55;;
11090;SDS011;5599;52.210;21.046;2023-07-08T08:43:27;3.22;;;2.22;;
11090;SDS011;5599;52.210;21.046;2023-07-08T08:46:06;2.45;;;2.10;;
11090;SDS011;5599;52.210;21.046;2023-07-08T08:48:43;4.65;;;2.47;;
11090;SDS011;5599;52.210;21.046;2023-07-08T08:51:20;3.67;;;2.20;;
11090;SDS011;5599;52.210;21.046;2023-07-08T08:53:49;3.08;;;2.22;;
11090;SDS011;5599;52.210;21.046;2023-07-08T08:56:24;2.50;;;2.30;;
11090;SDS011;5599;52.210;21.046;2023-07-08T08:58:57;2.47;;;2.28;;
11090;SDS011;5599;52.210;21.046;2023-07-08T09:01:34;2.80;;;2.58;;
11090;SDS011;5599;52.210;21.046;2023-07-08T09:04:05;2.67;;;2.35;;
11090;SDS011;5599;52.210;21.046;2023-07-08T09:06:40;2.92;;;2.35;;
11090;SDS011;5599;52.210;21.046;2023-07-08T09:09:10;3.53;;;2.35;;
11090;SDS011;5599;52.210;21.046;2023-07-08T09:11:44;3.55;;;2.22;;
11090;SDS011;5599;52.210;21.046;2023-07-08T09:14:22;2.47;;;2.28;;
11090;SDS011;5599;52.210;21.046;2023-07-08T09:16:56;3.08;;;2.42;;
11090;SDS011;5599;52.210;21.046;2023-07-08T09:19:35;2.20;;;1.92;;
11090;SDS011;5599;52.210;21.046;2023-07-08T09:22:10;4.90;;;2.13;;
11090;SDS011;5599;52.210;21.046;2023-07-08T09:24:43;3.58;;;2.60;;
11090;SDS011;5599;52.210;21.046;2023-07-08T09:27:16;3.95;;;2.40;;
11090;SDS011;5599;52.210;21.046;2023-07-08T09:29:46;4.57;;;2.10;;
11090;SDS011;5599;52.210;21.046;2023-07-08T09:32:16;2.47;;;2.08;;
11090;SDS011;5599;52.210;21.046;2023-07-08T09:34:49;3.05;;;2.55;;
11090;SDS011;5599;52.210;21.046;2023-07-08T09:37:24;3.45;;;2.38;;
11090;SDS011;5599;52.210;21.046;2023-07-08T09:39:56;3.40;;;2.47;;
11090;SDS011;5599;52.210;21.046;2023-07-08T09:42:28;3.03;;;2.65;;
11090;SDS011;5599;52.210;21.046;2023-07-08T09:45:00;5.97;;;2.60;;
11090;SDS011;5599;52.210;21.046;2023-07-08T09:47:34;2.85;;;2.60;;
11090;SDS011;5599;52.210;21.046;2023-07-08T09:50:15;2.47;;;2.22;;
11090;SDS011;5599;52.210;21.046;2023-07-08T09:52:46;2.83;;;2.05;;
11090;SDS011;5599;52.210;21.046;2023-07-08T09:55:16;2.60;;;2.40;;
11090;SDS011;5599;52.210;21.046;2023-07-08T09:57:46;5.32;;;4.68;;
11090;SDS011;5599;52.210;21.046;2023-07-08T10:00:18;3.50;;;3.20;;
11090;SDS011;5599;52.210;21.046;2023-07-08T10:02:54;2.97;;;2.47;;
11090;SDS011;5599;52.210;21.046;2023-07-08T10:05:27;3.97;;;2.50;;
11090;SDS011;5599;52.210;21.046;2023-07-08T10:08:00;5.22;;;2.50;;
11090;SDS011;5599;52.210;21.046;2023-07-08T10:10:37;2.88;;;2.35;;
11090;SDS011;5599;52.210;21.046;2023-07-08T10:13:12;3.17;;;2.58;;
11090;SDS011;5599;52.210;21.046;2023-07-08T10:15:46;3.35;;;2.47;;
11090;SDS011;5599;52.210;21.046;2023-07-08T10:18:21;2.55;;;2.35;;
11090;SDS011;5599;52.210;21.046;2023-07-08T10:20:59;2.80;;;2.50;;
11090;SDS011;5599;52.210;21.046;2023-07-08T10:23:38;4.45;;;2.17;;
11090;SDS011;5599;52.210;21.046;2023-07-08T10:26:14;2.47;;;2.10;;
11090;SDS011;5599;52.210;21.046;2023-07-08T10:28:53;2.88;;;2.20;;
11090;SDS011;5599;52.210;21.046;2023-07-08T10:31:32;7.63;;;2.30;;
11090;SDS011;5599;52.210;21.046;2023-07-08T10:34:13;3.85;;;2.22;;
11090;SDS011;5599;52.210;21.046;2023-07-08T10:36:59;3.25;;;2.20;;
11090;SDS011;5599;52.210;21.046;2023-07-08T10:39:44;2.90;;;2.50;;
11090;SDS011;5599;52.210;21.046;2023-07-08T10:42:25;2.65;;;2.15;;
11090;SDS011;5599;52.210;21.046;2023-07-08T10:45:09;2.60;;;2.30;;
11090;SDS011;5599;52.210;21.046;2023-07-08T10:47:50;2.28;;;2.08;;
11090;SDS011;5599;52.210;21.046;2023-07-08T10:50:35;2.28;;;2.08;;
11090;SDS011;5599;52.210;21.046;2023-07-08T10:53:28;2.58;;;2.20;;
11090;SDS011;5599;52.210;21.046;2023-07-08T10:56:16;3.25;;;2.53;;
11090;SDS011;5599;52.210;21.046;2023-07-08T10:58:52;2.42;;;2.22;;
11090;SDS011;5599;52.210;21.046;2023-07-08T11:01:37;3.10;;;2.30;;
11090;SDS011;5599;52.210;21.046;2023-07-08T11:04:33;2.78;;;2.50;;
11090;SDS011;5599;52.210;21.046;2023-07-08T11:07:14;2.38;;;2.17;;
11090;SDS011;5599;52.210;21.046;2023-07-08T11:09:52;3.13;;;2.22;;
11090;SDS011;5599;52.210;21.046;2023-07-08T11:12:26;3.63;;;2.65;;
11090;SDS011;5599;52.210;21.046;2023-07-08T11:15:02;3.13;;;2.35;;
11090;SDS011;5599;52.210;21.046;2023-07-08T11:17:36;3.75;;;2.22;;
11090;SDS011;5599;52.210;21.046;2023-07-08T11:20:12;2.63;;;2.35;;
11090;SDS011;5599;52.210;21.046;2023-07-08T11:22:46;2.78;;;2.25;;
11090;SDS011;5599;52.210;21.046;2023-07-08T11:25:20;4.25;;;2.42;;
11090;SDS011;5599;52.210;21.046;2023-07-08T11:27:54;2.78;;;2.13;;
11090;SDS011;5599;52.210;21.046;2023-07-08T11:30:27;2.60;;;2.40;;
11090;SDS011;5599;52.210;21.046;2023-07-08T11:33:00;3.17;;;2.75;;
11090;SDS011;5599;52.210;21.046;2023-07-08T11:35:37;4.25;;;2.58;;
11090;SDS011;5599;52.210;21.046;2023-07-08T11:38:10;4.13;;;2.25;;
11090;SDS011;5599;52.210;21.046;2023-07-08T11:40:55;3.13;;;2.47;;
11090;SDS011;5599;52.210;21.046;2023-07-08T11:43:27;3.35;;;2.40;;
11090;SDS011;5599;52.210;21.046;2023-07-08T11:46:03;4.00;;;2.40;;
11090;SDS011;5599;52.210;21.046;2023-07-08T11:48:37;2.65;;;2.45;;
11090;SDS011;5599;52.210;21.046;2023-07-08T11:51:14;2.90;;;2.42;;
11090;SDS011;5599;52.210;21.046;2023-07-08T11:53:48;5.93;;;2.60;;
11090;SDS011;5599;52.210;21.046;2023-07-08T11:56:21;3.70;;;2.60;;
11090;SDS011;5599;52.210;21.046;2023-07-08T11:58:57;2.70;;;2.50;;
11090;SDS011;5599;52.210;21.046;2023-07-08T12:01:37;6.40;;;2.50;;
11090;SDS011;5599;52.210;21.046;2023-07-08T12:07:14;3.55;;;2.90;;
11090;SDS011;5599;52.210;21.046;2023-07-08T12:09:48;2.97;;;2.50;;
11090;SDS011;5599;52.210;21.046;2023-07-08T12:12:31;3.85;;;2.92;;
11090;SDS011;5599;52.210;21.046;2023-07-08T12:15:11;3.03;;;2.50;;
11090;SDS011;5599;52.210;21.046;2023-07-08T12:17:43;2.42;;;2.22;;
11090;SDS011;5599;52.210;21.046;2023-07-08T12:20:18;3.67;;;2.60;;
11090;SDS011;5599;52.210;21.046;2023-07-08T12:22:51;2.90;;;2.60;;
11090;SDS011;5599;52.210;21.046;2023-07-08T12:25:21;2.80;;;2.42;;
11090;SDS011;5599;52.210;21.046;2023-07-08T12:27:54;2.75;;;2.35;;
11090;SDS011;5599;52.210;21.046;2023-07-08T12:30:24;3.95;;;2.47;;
11090;SDS011;5599;52.210;21.046;2023-07-08T12:32:56;4.60;;;2.58;;
11090;SDS011;5599;52.210;21.046;2023-07-08T12:35:27;4.93;;;2.80;;
11090;SDS011;5599;52.210;21.046;2023-07-08T12:37:59;3.58;;;2.63;;
11090;SDS011;5599;52.210;21.046;2023-07-08T12:40:30;3.15;;;2.42;;
11090;SDS011;5599;52.210;21.046;2023-07-08T12:43:01;3.45;;;2.60;;
11090;SDS011;5599;52.210;21.046;2023-07-08T12:45:30;3.40;;;2.70;;
11090;SDS011;5599;52.210;21.046;2023-07-08T12:48:00;2.92;;;2.50;;
11090;SDS011;5599;52.210;21.046;2023-07-08T12:50:29;7.07;;;2.53;;
11090;SDS011;5599;52.210;21.046;2023-07-08T12:52:59;5.47;;;2.80;;
11090;SDS011;5599;52.210;21.046;2023-07-08T12:55:31;4.50;;;2.70;;
11090;SDS011;5599;52.210;21.046;2023-07-08T12:58:03;4.22;;;2.88;;
11090;SDS011;5599;52.210;21.046;2023-07-08T13:00:38;3.35;;;3.05;;
11090;SDS011;5599;52.210;21.046;2023-07-08T13:03:12;3.63;;;2.90;;
11090;SDS011;5599;52.210;21.046;2023-07-08T13:05:44;3.20;;;2.50;;
11090;SDS011;5599;52.210;21.046;2023-07-08T13:08:14;3.13;;;2.90;;
11090;SDS011;5599;52.210;21.046;2023-07-08T13:10:49;3.47;;;3.05;;
11090;SDS011;5599;52.210;21.046;2023-07-08T13:13:23;4.00;;;2.90;;
11090;SDS011;5599;52.210;21.046;2023-07-08T13:15:57;4.45;;;2.97;;
11090;SDS011;5599;52.210;21.046;2023-07-08T13:18:29;4.93;;;2.60;;
11090;SDS011;5599;52.210;21.046;2023-07-08T13:21:00;3.17;;;2.75;;
11090;SDS011;5599;52.210;21.046;2023-07-08T13:23:31;3.45;;;2.90;;
11090;SDS011;5599;52.210;21.046;2023-07-08T13:26:11;3.45;;;2.78;;
11090;SDS011;5599;52.210;21.046;2023-07-08T13:28:43;5.15;;;2.88;;
11090;SDS011;5599;52.210;21.046;2023-07-08T13:31:14;5.03;;;2.70;;
11090;SDS011;5599;52.210;21.046;2023-07-08T13:33:50;3.38;;;2.38;;
11090;SDS011;5599;52.210;21.046;2023-07-08T13:36:23;3.38;;;2.80;;
11090;SDS011;5599;52.210;21.046;2023-07-08T13:38:53;3.20;;;2.40;;
11090;SDS011;5599;52.210;21.046;2023-07-08T13:41:24;3.75;;;3.00;;
11090;SDS011;5599;52.210;21.046;2023-07-08T13:43:55;2.92;;;2.58;;
11090;SDS011;5599;52.210;21.046;2023-07-08T13:46:29;4.18;;;2.78;;
11090;SDS011;5599;52.210;21.046;2023-07-08T13:49:02;4.60;;;3.10;;
11090;SDS011;5599;52.210;21.046;2023-07-08T13:51:39;5.55;;;2.72;;
11090;SDS011;5599;52.210;21.046;2023-07-08T13:54:13;4.80;;;3.25;;
11090;SDS011;5599;52.210;21.046;2023-07-08T13:56:43;5.28;;;2.90;;
11090;SDS011;5599;52.210;21.046;2023-07-08T13:59:18;2.95;;;2.65;;
11090;SDS011;5599;52.210;21.046;2023-07-08T14:01:50;3.65;;;2.60;;
11090;SDS011;5599;52.210;21.046;2023-07-08T14:04:21;4.07;;;2.63;;
11090;SDS011;5599;52.210;21.046;2023-07-08T14:06:56;3.20;;;2.78;;
11090;SDS011;5599;52.210;21.046;2023-07-08T14:09:25;3.22;;;2.92;;
11090;SDS011;5599;52.210;21.046;2023-07-08T14:11:56;3.42;;;2.65;;
11090;SDS011;5599;52.210;21.046;2023-07-08T14:14:27;2.70;;;2.50;;
11090;SDS011;5599;52.210;21.046;2023-07-08T14:16:56;3.08;;;2.72;;
11090;SDS011;5599;52.210;21.046;2023-07-08T14:19:26;2.60;;;2.40;;
11090;SDS011;5599;52.210;21.046;2023-07-08T14:21:59;2.92;;;2.50;;
11090;SDS011;5599;52.210;21.046;2023-07-08T14:24:30;3.25;;;2.30;;
11090;SDS011;5599;52.210;21.046;2023-07-08T14:26:59;3.00;;;2.70;;
11090;SDS011;5599;52.210;21.046;2023-07-08T14:29:30;3.60;;;2.67;;
11090;SDS011;5599;52.210;21.046;2023-07-08T14:31:59;4.35;;;2.65;;
11090;SDS011;5599;52.210;21.046;2023-07-08T14:34:30;2.78;;;2.58;;
11090;SDS011;5599;52.210;21.046;2023-07-08T14:37:01;2.90;;;2.58;;
11090;SDS011;5599;52.210;21.046;2023-07-08T14:39:30;2.97;;;2.67;;
11090;SDS011;5599;52.210;21.046;2023-07-08T14:41:59;5.53;;;2.85;;
11090;SDS011;5599;52.210;21.046;2023-07-08T14:44:32;3.33;;;2.78;;
11090;SDS011;5599;52.210;21.046;2023-07-08T14:47:04;4.15;;;2.50;;
11090;SDS011;5599;52.210;21.046;2023-07-08T14:49:36;3.30;;;3.00;;
11090;SDS011;5599;52.210;21.046;2023-07-08T14:52:07;4.13;;;2.78;;
11090;SDS011;5599;52.210;21.046;2023-07-08T14:54:37;2.83;;;2.63;;
11090;SDS011;5599;52.210;21.046;2023-07-08T14:57:06;5.32;;;2.85;;
11090;SDS011;5599;52.210;21.046;2023-07-08T14:59:39;4.28;;;3.35;;
11090;SDS011;5599;52.210;21.046;2023-07-08T15:02:15;4.55;;;2.88;;
11090;SDS011;5599;52.210;21.046;2023-07-08T15:04:47;4.47;;;2.80;;
11090;SDS011;5599;52.210;21.046;2023-07-08T15:07:18;3.95;;;2.60;;
11090;SDS011;5599;52.210;21.046;2023-07-08T15:09:47;3.08;;;2.78;;
11090;SDS011;5599;52.210;21.046;2023-07-08T15:12:16;4.38;;;2.95;;
11090;SDS011;5599;52.210;21.046;2023-07-08T15:14:47;3.13;;;2.83;;
11090;SDS011;5599;52.210;21.046;2023-07-08T15:17:17;2.83;;;2.63;;